LIPH METAR and TAF | Updated Today

LIPH METAR

Treviso-Sant'Angelo Airport

Observation time: 25 min. ago

LIPH 200650Z VRB02KT CAVOK 21/13 Q1027

Need help? Read our tutorial on how to read METARs or read the parsed version below.

Treviso-Sant'Angelo Airport (LIPH) METAR

  • Weather conditions on Fri, 20 May 2022 06:50:00 +0000 (25 min. ago):
  • Present conditions: Dry
  • Clouds: Clear skies
  • Visibility: Greater than 10 km
  • Wind: Variable at 2 knots
  • Temperature: 21 celsius
  • Dew point: 13 celsius
  • Pressure: 1027 millibars
  • Remarks: None


Useful to know...

LIPH TAF

Treviso-Sant'Angelo Airport

TAF LIPH 200500Z 2006/2106 VRB04KT CAVOK BECMG 2010/2012 15010KT BECMG 2016/2018 VRB04KT
Observation time: 2:15 hr. ago
Need help? Read our tutorial on how to read TAFs or read the parsed version below.

Parsed version of TAF for Treviso-Sant'Angelo Airport (LIPH)

  • From 20 May at 06:00 UTC, to day 21 of the month at 06:00 UTC
  • Visibility: Greater than 10 km
  • Wind: Variable at 4
  • Expected to arise soon, from 20 May at 10:00 UTC, to day 20 of the month at 12:00 UTC
  • Wind: 150 degrees at 10
  • Expected to arise soon, from 20 May at 16:00 UTC, to day 20 of the month at 18:00 UTC
  • Wind: Variable at 4